Time;durP1;ratioP1;P1;durP2;ratioP2;P2;SDS_P1;SDS_P2;PMS_P1;PMS_P2;Temp;Humidity;BMP_temperature;BMP_pressure;BME280_temperature;BME280_humidity;BME280_pressure;Samples;Min_cycle;Max_cycle;Signal;HPM_P1;HPM_P2
2021/06/04 00:00:00;;;;;;;6.60;6.03;;;21.60;57.50;;;;;;5052163;28;20469;-63
2021/06/04 00:02:26;;;;;;;5.53;5.17;;;21.50;57.60;;;;;;5052067;28;20497;-62
2021/06/04 00:04:53;;;;;;;5.67;5.20;;;21.50;57.60;;;;;;5052203;28;20477;-63
2021/06/04 00:07:19;;;;;;;6.43;5.83;;;21.50;57.60;;;;;;5038856;28;20478;-62
2021/06/04 00:09:45;;;;;;;6.53;5.07;;;21.50;57.70;;;;;;5051290;28;20482;-63
2021/06/04 00:12:12;;;;;;;5.97;5.50;;;21.50;57.80;;;;;;5051952;28;20562;-63
2021/06/04 00:14:41;;;;;;;6.00;5.60;;;21.40;57.80;;;;;;5052373;28;20550;-63
2021/06/04 00:17:13;;;;;;;5.50;5.00;;;21.40;57.80;;;;;;5050945;28;20493;-63
2021/06/04 00:19:40;;;;;;;5.70;5.30;;;21.40;57.90;;;;;;5052336;28;20464;-63
2021/06/04 00:22:10;;;;;;;5.73;5.43;;;21.40;57.90;;;;;;5051755;28;20848;-63
2021/06/04 00:24:38;;;;;;;9.27;6.10;;;21.40;58.00;;;;;;5052116;28;20820;-63
2021/06/04 00:27:06;;;;;;;5.13;4.73;;;21.40;58.00;;;;;;5052152;28;20463;-63
2021/06/04 00:29:33;;;;;;;5.97;5.47;;;21.40;58.00;;;;;;5051592;28;20934;-63
2021/06/04 00:32:00;;;;;;;6.10;5.60;;;21.30;58.10;;;;;;5050631;28;20459;-63
2021/06/04 00:34:27;;;;;;;5.00;4.60;;;21.30;58.00;;;;;;5051524;28;20459;-63
2021/06/04 00:36:54;;;;;;;5.90;5.33;;;21.30;58.10;;;;;;5051086;28;20469;-63
2021/06/04 00:39:25;;;;;;;5.13;4.73;;;21.20;58.00;;;;;;5046364;28;20546;-63
2021/06/04 00:41:54;;;;;;;5.67;5.17;;;21.30;58.20;;;;;;5038749;28;20470;-63
2021/06/04 00:44:22;;;;;;;5.53;5.03;;;21.20;58.20;;;;;;5050932;28;20535;-63
2021/06/04 00:46:48;;;;;;;5.53;5.03;;;21.20;58.40;;;;;;5051748;28;20474;-63
2021/06/04 00:49:15;;;;;;;6.10;5.50;;;21.10;58.40;;;;;;5050888;28;20475;-63
2021/06/04 00:51:46;;;;;;;5.70;5.30;;;21.20;58.50;;;;;;5051905;28;20495;-63
2021/06/04 00:54:15;;;;;;;6.27;5.67;;;21.20;58.40;;;;;;5051496;28;20459;-61
2021/06/04 00:56:42;;;;;;;6.30;5.80;;;21.10;58.40;;;;;;5051676;28;20786;-63
2021/06/04 00:59:14;;;;;;;5.40;5.00;;;21.10;58.50;;;;;;5050622;28;20481;-62
2021/06/04 01:01:42;;;;;;;5.60;5.20;;;21.20;58.50;;;;;;5046800;28;20918;-62
2021/06/04 01:04:10;;;;;;;7.50;5.30;;;21.10;58.50;;;;;;5047197;28;20483;-62
2021/06/04 01:06:41;;;;;;;6.10;5.60;;;21.10;58.40;;;;;;5043399;28;20471;-62
2021/06/04 01:09:34;;;;;;;6.00;5.50;;;21.10;58.50;;;;;;5046969;28;20463;-62
2021/06/04 01:12:15;;;;;;;5.60;5.10;;;21.10;58.50;;;;;;5041445;28;20794;-62
2021/06/04 01:14:51;;;;;;;5.80;5.30;;;21.20;58.50;;;;;;5047052;28;20877;-62
2021/06/04 01:17:25;;;;;;;6.13;5.63;;;21.20;58.60;;;;;;5043839;28;20474;-62
2021/06/04 01:19:59;;;;;;;5.87;5.47;;;21.10;58.50;;;;;;5042786;28;20973;-62
2021/06/04 01:22:35;;;;;;;6.17;5.70;;;21.10;58.50;;;;;;5046380;28;20881;-62
2021/06/04 01:25:16;;;;;;;6.63;5.33;;;21.10;58.50;;;;;;5048588;28;20467;-62
2021/06/04 01:27:48;;;;;;;5.80;5.40;;;21.20;58.50;;;;;;5049587;28;20466;-62
2021/06/04 01:30:29;;;;;;;5.87;5.27;;;21.10;58.50;;;;;;5051872;28;20516;-63
2021/06/04 01:33:00;;;;;;;7.80;6.67;;;21.10;58.50;;;;;;5050955;28;20491;-62
2021/06/04 01:35:31;;;;;;;7.97;5.10;;;21.10;58.60;;;;;;5052590;28;21298;-62
2021/06/04 01:38:00;;;;;;;5.53;5.13;;;21.10;58.60;;;;;;5052778;28;20471;-63
2021/06/04 01:40:30;;;;;;;5.40;5.00;;;21.00;58.60;;;;;;5051743;28;20960;-62
2021/06/04 01:43:01;;;;;;;6.07;5.60;;;21.00;58.70;;;;;;5049842;28;20475;-62
2021/06/04 01:45:30;;;;;;;6.07;5.57;;;20.90;58.60;;;;;;5054060;28;20473;-62
2021/06/04 01:48:01;;;;;;;5.60;5.10;;;21.00;58.80;;;;;;5054937;28;20494;-62
2021/06/04 01:50:32;;;;;;;6.77;6.20;;;20.90;58.80;;;;;;5054743;28;20459;-62
2021/06/04 01:53:06;;;;;;;6.57;5.97;;;20.90;58.80;;;;;;5055037;28;20485;-62
2021/06/04 01:55:36;;;;;;;5.80;5.40;;;21.00;59.00;;;;;;5054528;28;20471;-62
2021/06/04 01:58:08;;;;;;;6.00;5.50;;;20.90;58.90;;;;;;5054713;28;20475;-62
2021/06/04 02:00:38;;;;;;;5.77;5.37;;;21.00;58.90;;;;;;5034103;28;20575;-62
2021/06/04 02:03:06;;;;;;;6.83;6.20;;;21.00;58.90;;;;;;5033188;28;20976;-62
2021/06/04 02:05:37;;;;;;;5.97;5.47;;;20.90;58.90;;;;;;5032718;28;20487;-63
2021/06/04 02:08:06;;;;;;;5.93;5.33;;;21.00;58.90;;;;;;5033194;28;20475;-62
2021/06/04 02:10:37;;;;;;;5.90;5.40;;;21.00;58.90;;;;;;5032843;28;20468;-62
2021/06/04 02:13:07;;;;;;;11.23;6.00;;;21.00;58.90;;;;;;5033173;28;20460;-63
2021/06/04 02:15:37;;;;;;;8.90;5.93;;;20.90;58.80;;;;;;5033454;28;20478;-63
2021/06/04 02:18:12;;;;;;;5.57;5.17;;;20.90;58.90;;;;;;5034763;28;20475;-62
2021/06/04 02:20:44;;;;;;;6.63;6.03;;;20.90;58.90;;;;;;5034541;28;20455;-62
2021/06/04 02:23:15;;;;;;;6.60;5.90;;;20.90;59.00;;;;;;5034420;28;20471;-62
2021/06/04 02:25:48;;;;;;;6.57;5.97;;;20.80;59.10;;;;;;5034317;28;21226;-62
2021/06/04 02:28:24;;;;;;;6.60;6.00;;;20.80;59.30;;;;;;5034617;28;20486;-62
2021/06/04 02:30:57;;;;;;;5.37;4.87;;;20.90;59.60;;;;;;5034298;28;20517;-62
2021/06/04 02:33:27;;;;;;;5.93;5.43;;;20.90;59.60;;;;;;5034340;28;20468;-62
2021/06/04 02:35:57;;;;;;;5.90;5.50;;;20.90;59.60;;;;;;5034400;28;20463;-62
2021/06/04 02:38:28;;;;;;;6.83;5.47;;;20.80;59.30;;;;;;5034507;28;20472;-62
2021/06/04 02:40:59;;;;;;;5.33;4.93;;;20.80;59.30;;;;;;5048148;28;20542;-62
2021/06/04 02:43:32;;;;;;;6.67;6.17;;;20.80;59.30;;;;;;5054127;28;20473;-62
2021/06/04 02:46:03;;;;;;;6.10;5.60;;;20.80;59.30;;;;;;5054095;28;21268;-63
2021/06/04 02:48:30;;;;;;;5.70;5.20;;;20.70;59.20;;;;;;5054117;28;20475;-62
2021/06/04 02:51:03;;;;;;;7.00;5.97;;;20.80;59.20;;;;;;5053756;28;20467;-62
2021/06/04 02:53:33;;;;;;;5.90;5.40;;;20.70;59.10;;;;;;5054044;28;20470;-62
2021/06/04 02:56:23;;;;;;;6.33;5.77;;;20.70;59.20;;;;;;5053404;28;20472;-62
2021/06/04 02:58:54;;;;;;;6.10;5.57;;;20.70;59.20;;;;;;5049773;28;20546;-62
2021/06/04 03:01:21;;;;;;;5.83;5.23;;;20.70;59.20;;;;;;5053633;28;20546;-62
2021/06/04 03:03:51;;;;;;;7.30;5.43;;;20.70;59.20;;;;;;5053257;28;20466;-62
2021/06/04 03:06:19;;;;;;;6.53;6.03;;;20.70;59.20;;;;;;5053909;28;20487;-62
2021/06/04 03:08:46;;;;;;;5.77;5.40;;;20.60;59.20;;;;;;5053206;28;20478;-62
2021/06/04 03:11:15;;;;;;;5.57;5.17;;;20.70;59.40;;;;;;5053828;28;20463;-62
2021/06/04 03:13:42;;;;;;;5.63;5.23;;;20.60;59.20;;;;;;5053360;28;20470;-62
2021/06/04 03:16:13;;;;;;;5.83;5.43;;;20.60;59.20;;;;;;5053443;28;20467;-63
2021/06/04 03:18:42;;;;;;;5.97;5.47;;;20.60;59.20;;;;;;5053074;28;20485;-61
2021/06/04 03:21:13;;;;;;;5.20;4.80;;;20.60;59.20;;;;;;5053536;28;20523;-62
2021/06/04 03:23:40;;;;;;;7.53;6.40;;;20.60;59.30;;;;;;5053015;28;20484;-62
2021/06/04 03:26:11;;;;;;;7.40;5.87;;;20.60;59.30;;;;;;5053423;28;20473;-62
2021/06/04 03:28:38;;;;;;;6.43;5.93;;;20.60;59.10;;;;;;5053415;28;20611;-61
2021/06/04 03:31:06;;;;;;;6.30;5.80;;;20.60;59.20;;;;;;5053183;28;20473;-62
2021/06/04 03:33:36;;;;;;;5.53;5.13;;;20.50;59.20;;;;;;5053150;28;20496;-62
2021/06/04 03:36:06;;;;;;;7.73;6.00;;;20.50;59.30;;;;;;5052945;28;20458;-62
2021/06/04 03:38:33;;;;;;;5.97;5.37;;;20.50;59.50;;;;;;5053166;28;20470;-63
2021/06/04 03:40:59;;;;;;;9.97;6.13;;;20.50;59.40;;;;;;5052593;28;20467;-62
2021/06/04 03:43:27;;;;;;;6.37;5.87;;;20.50;59.40;;;;;;5053123;28;20528;-62
2021/06/04 03:45:55;;;;;;;7.73;6.30;;;20.50;59.50;;;;;;5052623;28;20475;-63
2021/06/04 03:48:24;;;;;;;6.13;5.73;;;20.50;59.50;;;;;;5052839;28;20475;-62
2021/06/04 03:50:54;;;;;;;7.10;6.50;;;20.50;59.50;;;;;;5052208;28;20464;-62
2021/06/04 03:53:22;;;;;;;5.90;5.50;;;20.50;59.60;;;;;;5052598;28;20467;-62
2021/06/04 03:55:49;;;;;;;6.20;5.60;;;20.50;59.60;;;;;;5052136;28;20479;-62
2021/06/04 03:58:16;;;;;;;5.77;5.37;;;20.50;59.50;;;;;;5052921;28;20973;-62
2021/06/04 04:00:47;;;;;;;6.20;5.60;;;20.40;59.50;;;;;;5052261;28;20474;-62
2021/06/04 04:03:15;;;;;;;6.40;5.50;;;20.50;59.70;;;;;;5052872;28;20486;-62
2021/06/04 04:05:42;;;;;;;5.50;5.10;;;20.50;59.60;;;;;;5052704;28;20474;-62
2021/06/04 04:08:12;;;;;;;6.60;6.00;;;20.50;59.60;;;;;;5052362;28;20458;-62
2021/06/04 04:10:39;;;;;;;6.30;5.70;;;20.50;59.50;;;;;;5052714;28;20552;-60
2021/06/04 04:13:06;;;;;;;8.03;5.57;;;20.50;59.60;;;;;;5052213;28;20987;-62
2021/06/04 04:15:33;;;;;;;5.67;5.10;;;20.50;59.70;;;;;;5052701;28;20546;-61
2021/06/04 04:18:02;;;;;;;8.90;5.50;;;20.40;59.70;;;;;;5051877;28;20479;-63
2021/06/04 04:20:32;;;;;;;5.80;5.40;;;20.30;59.90;;;;;;5052816;28;20466;-62
2021/06/04 04:23:00;;;;;;;5.47;5.07;;;20.40;60.10;;;;;;5052128;28;20468;-62
2021/06/04 04:25:30;;;;;;;5.90;5.40;;;20.40;60.20;;;;;;5052378;28;20466;-62
2021/06/04 04:27:57;;;;;;;5.63;5.23;;;20.40;60.30;;;;;;5052185;28;20485;-62
2021/06/04 04:30:24;;;;;;;6.23;5.70;;;20.40;60.60;;;;;;5052770;28;20496;-62
2021/06/04 04:32:51;;;;;;;8.13;7.00;;;20.30;60.70;;;;;;5051911;28;20819;-62
2021/06/04 04:35:21;;;;;;;6.07;5.53;;;20.30;60.90;;;;;;5052390;28;20465;-62
2021/06/04 04:37:48;;;;;;;7.70;5.70;;;20.40;61.10;;;;;;5052096;28;21003;-62
2021/06/04 04:40:16;;;;;;;10.37;5.97;;;20.40;61.40;;;;;;5052362;28;20774;-62
2021/06/04 04:42:45;;;;;;;9.07;5.47;;;20.40;61.70;;;;;;5052246;28;20474;-62
2021/06/04 04:45:14;;;;;;;6.90;6.30;;;20.40;62.40;;;;;;5052174;28;20793;-62
2021/06/04 04:47:41;;;;;;;7.03;6.33;;;20.40;63.20;;;;;;5052149;28;20804;-62
2021/06/04 04:50:09;;;;;;;5.90;5.40;;;20.30;63.90;;;;;;5052034;28;20488;-62
2021/06/04 04:52:35;;;;;;;6.87;6.37;;;20.30;64.30;;;;;;5052267;28;20485;-62
2021/06/04 04:55:02;;;;;;;6.90;6.33;;;20.30;65.00;;;;;;5051662;28;20476;-62
2021/06/04 04:57:30;;;;;;;6.37;5.73;;;20.30;65.10;;;;;;5052220;28;20482;-61
2021/06/04 04:59:58;;;;;;;7.90;7.10;;;20.30;65.10;;;;;;5051709;28;20472;-62
2021/06/04 05:02:25;;;;;;;7.10;6.50;;;20.30;65.10;;;;;;5052395;28;20471;-62
2021/06/04 05:04:52;;;;;;;6.27;5.67;;;20.20;65.10;;;;;;5055734;28;20476;-61
2021/06/04 05:07:19;;;;;;;5.97;5.47;;;20.20;65.40;;;;;;5055804;28;20553;-63
2021/06/04 05:09:45;;;;;;;9.03;6.80;;;20.20;65.30;;;;;;5055917;28;20466;-62
2021/06/04 05:12:12;;;;;;;6.93;6.33;;;20.20;65.20;;;;;;5055719;28;20455;-62
2021/06/04 05:14:39;;;;;;;6.13;5.70;;;20.20;65.40;;;;;;5055742;28;20465;-62
2021/06/04 05:17:08;;;;;;;7.40;6.23;;;20.20;66.30;;;;;;5055249;28;20808;-62
2021/06/04 05:19:36;;;;;;;6.07;5.57;;;20.20;65.50;;;;;;5055846;28;20531;-62
2021/06/04 05:22:02;;;;;;;7.10;6.30;;;20.20;65.10;;;;;;5055189;28;21053;-62
2021/06/04 05:24:29;;;;;;;6.40;5.90;;;20.10;65.40;;;;;;5055629;28;20474;-62
2021/06/04 05:26:55;;;;;;;6.57;6.07;;;20.20;65.50;;;;;;5055216;28;20476;-62
2021/06/04 05:29:22;;;;;;;7.47;6.00;;;20.20;65.50;;;;;;5055509;28;20594;-62
2021/06/04 05:31:49;;;;;;;11.43;7.10;;;20.20;65.60;;;;;;5055492;28;20465;-63
2021/06/04 05:34:16;;;;;;;6.50;6.00;;;20.20;65.60;;;;;;5055259;28;20496;-62
2021/06/04 05:36:43;;;;;;;9.40;6.30;;;20.20;65.50;;;;;;5055510;28;20974;-63
2021/06/04 05:39:13;;;;;;;6.27;5.73;;;20.10;65.90;;;;;;5055007;28;20477;-63
2021/06/04 05:41:41;;;;;;;7.13;6.53;;;20.10;65.90;;;;;;5055300;28;20509;-63
2021/06/04 05:44:09;;;;;;;8.40;6.30;;;20.20;66.20;;;;;;5054815;28;20555;-63
2021/06/04 05:46:35;;;;;;;7.03;5.90;;;20.20;66.20;;;;;;5055204;28;20534;-61
2021/06/04 05:49:02;;;;;;;6.67;5.97;;;20.30;66.70;;;;;;5054887;28;20478;-62
2021/06/04 05:51:30;;;;;;;6.47;5.87;;;20.30;66.80;;;;;;5054986;28;20488;-61
2021/06/04 05:53:57;;;;;;;6.90;6.30;;;20.30;68.20;;;;;;5054795;28;20550;-63
2021/06/04 05:56:27;;;;;;;9.37;7.57;;;20.40;70.70;;;;;;5054731;28;20470;-63
2021/06/04 05:58:54;;;;;;;9.13;7.40;;;20.40;72.90;;;;;;5054483;28;20476;-63
2021/06/04 06:01:23;;;;;;;9.10;8.27;;;20.40;74.50;;;;;;5054818;28;20462;-61
2021/06/04 06:03:49;;;;;;;8.87;8.07;;;20.30;76.20;;;;;;5054963;28;20478;-62
2021/06/04 06:06:16;;;;;;;22.53;9.17;;;20.30;77.70;;;;;;5054526;28;20474;-63
2021/06/04 06:08:45;;;;;;;9.27;8.43;;;20.20;79.90;;;;;;5054820;28;20974;-63
2021/06/04 06:11:14;;;;;;;7.30;6.60;;;20.20;80.60;;;;;;5054502;28;20530;-62
2021/06/04 06:13:41;;;;;;;7.77;7.07;;;20.10;81.30;;;;;;5054459;28;20479;-62
2021/06/04 06:16:08;;;;;;;11.83;7.87;;;20.00;81.40;;;;;;5053597;28;20462;-62
2021/06/04 06:18:35;;;;;;;7.93;7.13;;;20.00;81.90;;;;;;5054740;28;20478;-62
2021/06/04 06:21:02;;;;;;;8.50;7.73;;;19.90;83.30;;;;;;5054288;28;20469;-62
2021/06/04 06:23:31;;;;;;;8.43;7.73;;;19.90;84.40;;;;;;5054650;28;20462;-62
2021/06/04 06:26:01;;;;;;;8.20;7.50;;;19.90;85.30;;;;;;5054109;28;20536;-61
2021/06/04 06:28:33;;;;;;;8.87;8.17;;;19.80;85.80;;;;;;5054415;28;20472;-63
2021/06/04 06:31:00;;;;;;;9.27;8.10;;;19.80;87.40;;;;;;5054172;28;20477;-63
2021/06/04 06:33:26;;;;;;;8.67;7.97;;;19.80;88.40;;;;;;5054197;28;20475;-62
2021/06/04 06:35:55;;;;;;;9.20;8.40;;;19.70;88.80;;;;;;5054349;28;20545;-62
2021/06/04 06:38:22;;;;;;;8.93;7.13;;;19.70;88.40;;;;;;5053981;28;20457;-62
2021/06/04 06:40:49;;;;;;;8.33;7.70;;;19.70;88.10;;;;;;5054332;28;20484;-62
2021/06/04 06:43:16;;;;;;;10.27;7.40;;;19.70;87.80;;;;;;5053900;28;20499;-63
2021/06/04 06:45:44;;;;;;;8.27;7.57;;;19.70;87.30;;;;;;5054250;28;20474;-62
2021/06/04 06:48:11;;;;;;;8.13;7.37;;;19.60;87.00;;;;;;5053504;28;20997;-62
2021/06/04 06:50:39;;;;;;;9.23;7.73;;;19.60;87.60;;;;;;5054226;28;20470;-62
2021/06/04 06:53:07;;;;;;;8.40;7.60;;;19.60;87.30;;;;;;5053687;28;20461;-62
2021/06/04 06:55:35;;;;;;;8.60;7.63;;;19.60;87.50;;;;;;5053660;28;20560;-61
2021/06/04 06:58:01;;;;;;;9.80;8.80;;;19.60;87.70;;;;;;5053467;28;20590;-62
2021/06/04 07:00:33;;;;;;;8.87;8.10;;;19.60;87.60;;;;;;5054001;28;20510;-63
2021/06/04 07:02:59;;;;;;;9.00;7.87;;;19.60;87.60;;;;;;5053479;28;20470;-63
2021/06/04 07:05:27;;;;;;;8.83;7.00;;;19.70;87.60;;;;;;5053536;28;20839;-62
2021/06/04 07:07:53;;;;;;;8.40;7.60;;;19.70;88.80;;;;;;5053754;28;20473;-62
2021/06/04 07:10:23;;;;;;;8.30;7.30;;;19.60;88.40;;;;;;5053187;28;20476;-63
2021/06/04 07:12:50;;;;;;;8.33;7.63;;;19.70;88.20;;;;;;5053765;28;20562;-63
2021/06/04 07:15:18;;;;;;;8.67;7.83;;;19.70;88.20;;;;;;5053203;28;20567;-63
2021/06/04 07:17:46;;;;;;;12.07;9.27;;;19.70;88.40;;;;;;5053419;28;20976;-62
2021/06/04 07:20:16;;;;;;;10.63;8.93;;;19.80;88.10;;;;;;5053101;28;20470;-63
2021/06/04 07:22:43;;;;;;;9.80;8.80;;;19.80;88.10;;;;;;5053410;28;20534;-63
2021/06/04 07:25:14;;;;;;;7.87;7.07;;;19.80;88.30;;;;;;5052652;28;20474;-62
2021/06/04 07:27:41;;;;;;;8.93;8.10;;;19.90;88.40;;;;;;5053394;28;20476;-62
2021/06/04 07:30:10;;;;;;;9.40;7.70;;;19.90;88.00;;;;;;5053002;28;20469;-63
2021/06/04 07:32:38;;;;;;;9.17;8.33;;;20.00;87.70;;;;;;5053127;28;20480;-63
2021/06/04 07:35:09;;;;;;;9.13;8.23;;;20.00;87.60;;;;;;5052913;28;21034;-63
2021/06/04 07:37:36;;;;;;;9.23;8.43;;;20.10;87.60;;;;;;5053199;28;20470;-63
2021/06/04 07:40:06;;;;;;;10.90;8.67;;;20.10;87.40;;;;;;5052895;28;20462;-62
2021/06/04 07:42:33;;;;;;;9.83;8.83;;;20.10;87.10;;;;;;5053146;28;20477;-63
2021/06/04 07:44:59;;;;;;;10.83;8.17;;;20.00;87.80;;;;;;5052929;28;20473;-62
2021/06/04 07:47:26;;;;;;;8.20;7.30;;;20.00;87.40;;;;;;5052265;28;20550;-63
2021/06/04 07:49:52;;;;;;;8.47;7.60;;;20.10;87.70;;;;;;5052871;28;20529;-62
2021/06/04 07:52:20;;;;;;;8.50;7.70;;;20.10;87.30;;;;;;5052661;28;20469;-62
2021/06/04 07:54:46;;;;;;;13.10;8.60;;;20.20;87.20;;;;;;5052787;28;20484;-62
2021/06/04 07:57:12;;;;;;;9.20;8.00;;;20.20;87.30;;;;;;5052019;28;20477;-62
2021/06/04 07:59:39;;;;;;;8.50;7.43;;;20.30;85.90;;;;;;5052861;28;20462;-62
2021/06/04 08:02:05;;;;;;;11.90;8.60;;;20.30;85.90;;;;;;5052137;28;20471;-62
2021/06/04 08:04:31;;;;;;;9.20;7.90;;;20.40;86.90;;;;;;5052896;28;20506;-63
2021/06/04 08:06:58;;;;;;;8.30;7.60;;;20.50;86.50;;;;;;5052294;28;20972;-63
2021/06/04 08:09:27;;;;;;;11.30;9.47;;;20.50;85.40;;;;;;5051942;28;20989;-61
2021/06/04 08:11:57;;;;;;;26.70;16.10;;;20.50;84.70;;;;;;5052774;28;20464;-62
2021/06/04 08:14:26;;;;;;;17.53;15.70;;;20.50;83.10;;;;;;5052010;28;20472;-62
2021/06/04 08:16:54;;;;;;;26.40;20.37;;;20.50;83.40;;;;;;5052363;28;20471;-62
2021/06/04 08:19:22;;;;;;;29.97;23.40;;;20.60;83.10;;;;;;5052139;28;20476;-62
2021/06/04 08:21:51;;;;;;;28.87;23.17;;;20.60;83.00;;;;;;5052653;28;20481;-62
2021/06/04 08:24:30;;;;;;;31.17;25.50;;;20.60;82.30;;;;;;5052064;28;20483;-62
2021/06/04 08:26:58;;;;;;;28.17;22.80;;;20.60;82.10;;;;;;5052270;28;20540;-62
2021/06/04 08:29:25;;;;;;;27.53;21.00;;;20.60;82.20;;;;;;5052099;28;20534;-62
2021/06/04 08:31:52;;;;;;;16.60;14.90;;;20.60;81.80;;;;;;5052254;28;20463;-62
2021/06/04 08:34:19;;;;;;;18.60;15.13;;;20.60;81.50;;;;;;5051937;28;20484;-61
2021/06/04 08:36:48;;;;;;;18.07;13.60;;;20.60;81.90;;;;;;5052620;28;20465;-62
2021/06/04 08:39:18;;;;;;;12.10;10.90;;;20.60;81.90;;;;;;5055493;28;20845;-62
2021/06/04 08:41:52;;;;;;;12.10;10.90;;;20.60;82.10;;;;;;5056563;28;20547;-62
2021/06/04 08:44:35;;;;;;;14.03;12.07;;;20.60;82.40;;;;;;5056087;28;20866;-62
2021/06/04 08:47:07;;;;;;;13.40;9.63;;;20.60;82.10;;;;;;5056443;28;20469;-63
2021/06/04 08:49:50;;;;;;;10.93;9.03;;;20.70;82.30;;;;;;5042567;28;20459;-62
2021/06/04 08:52:21;;;;;;;10.93;8.17;;;20.70;81.70;;;;;;5036913;28;20474;-62
2021/06/04 08:54:58;;;;;;;7.50;6.90;;;20.70;81.70;;;;;;5031496;28;20459;-63
2021/06/04 08:57:46;;;;;;;14.27;7.30;;;20.60;81.50;;;;;;5044173;28;20473;-62
2021/06/04 09:00:18;;;;;;;6.90;6.40;;;20.60;81.30;;;;;;5050037;28;20498;-62
2021/06/04 09:02:48;;;;;;;8.13;7.43;;;20.60;81.40;;;;;;5051986;28;20498;-63
2021/06/04 09:05:19;;;;;;;8.10;7.40;;;20.60;81.50;;;;;;5046807;28;20475;-63
2021/06/04 09:07:48;;;;;;;7.47;6.80;;;20.60;81.70;;;;;;5053262;28;20482;-62
2021/06/04 09:10:19;;;;;;;11.47;7.23;;;20.60;81.70;;;;;;5047134;28;20475;-62
2021/06/04 09:12:51;;;;;;;7.83;7.20;;;20.60;81.70;;;;;;5054741;28;20466;-63
2021/06/04 09:15:22;;;;;;;7.67;6.87;;;20.60;81.70;;;;;;5053680;28;20462;-63
2021/06/04 09:17:54;;;;;;;6.90;6.20;;;20.70;82.20;;;;;;5055264;28;20505;-63
2021/06/04 09:20:30;;;;;;;7.77;7.10;;;20.70;82.70;;;;;;5055346;28;20470;-62
2021/06/04 09:23:02;;;;;;;7.93;7.23;;;20.70;83.30;;;;;;5055731;28;20839;-62
2021/06/04 09:25:30;;;;;;;11.13;7.80;;;20.70;83.90;;;;;;5055040;28;20566;-62
2021/06/04 09:28:23;;;;;;;8.27;7.57;;;20.60;83.40;;;;;;5050136;28;20473;-62
2021/06/04 09:30:52;;;;;;;8.53;7.73;;;20.60;83.50;;;;;;5055868;28;20469;-62
2021/06/04 09:33:25;;;;;;;7.20;6.50;;;20.50;83.60;;;;;;5055058;28;21035;-62
2021/06/04 09:36:08;;;;;;;7.33;6.70;;;20.60;83.60;;;;;;5055417;28;20466;-62
2021/06/04 09:38:39;;;;;;;6.83;6.33;;;20.60;83.80;;;;;;5055288;28;20467;-62
2021/06/04 09:41:27;;;;;;;8.57;6.97;;;20.60;84.10;;;;;;5055217;28;20978;-64
2021/06/04 09:44:05;;;;;;;9.03;6.83;;;20.60;83.50;;;;;;5059255;28;20458;-62
2021/06/04 09:46:36;;;;;;;7.07;6.40;;;20.60;83.60;;;;;;5063252;28;20477;-62
2021/06/04 09:49:03;;;;;;;7.77;7.17;;;20.70;83.90;;;;;;5054841;28;20470;-62
2021/06/04 09:51:33;;;;;;;9.20;8.40;;;20.60;83.60;;;;;;5054950;28;20561;-63
2021/06/04 09:54:19;;;;;;;7.20;6.50;;;20.60;84.00;;;;;;5040854;28;20988;-62
2021/06/04 09:56:46;;;;;;;8.97;7.20;;;20.60;83.90;;;;;;5053921;28;20466;-62
2021/06/04 09:59:15;;;;;;;8.57;7.03;;;20.70;84.40;;;;;;5053480;28;20463;-63
2021/06/04 10:01:50;;;;;;;7.23;6.50;;;20.70;84.90;;;;;;5053022;28;20467;-62
2021/06/04 10:04:27;;;;;;;7.47;6.77;;;20.70;85.30;;;;;;5041364;28;20455;-62
2021/06/04 10:07:01;;;;;;;9.37;8.40;;;20.70;86.00;;;;;;5054306;28;20832;-62
2021/06/04 10:09:32;;;;;;;8.70;7.80;;;20.70;86.20;;;;;;5054922;28;20479;-61
2021/06/04 10:12:02;;;;;;;8.57;7.87;;;20.80;86.50;;;;;;5054210;28;20474;-63
2021/06/04 10:14:48;;;;;;;7.30;6.70;;;20.80;86.20;;;;;;5054590;28;20472;-62
2021/06/04 10:17:48;;;;;;;7.33;6.73;;;20.80;86.80;;;;;;5041728;28;20551;-62
2021/06/04 10:20:50;;;;;;;8.97;7.73;;;20.80;87.30;;;;;;5054313;28;20553;-61
2021/06/04 10:23:23;;;;;;;7.73;7.03;;;20.70;88.30;;;;;;5048945;28;20466;-62
2021/06/04 10:25:54;;;;;;;11.20;8.43;;;20.70;88.90;;;;;;5054419;28;20470;-62
2021/06/04 10:28:35;;;;;;;14.43;9.77;;;20.70;89.70;;;;;;5053360;28;20980;-63
2021/06/04 10:31:09;;;;;;;8.80;8.00;;;20.70;90.10;;;;;;5053773;28;20477;-61
2021/06/04 10:33:48;;;;;;;9.67;8.60;;;20.60;90.50;;;;;;5054284;28;20473;-62
2021/06/04 10:36:19;;;;;;;16.73;9.77;;;20.70;90.80;;;;;;5053810;28;20800;-62
2021/06/04 10:38:51;;;;;;;8.70;7.87;;;20.70;91.00;;;;;;5054209;28;20484;-62
2021/06/04 10:41:24;;;;;;;9.30;8.40;;;20.70;91.20;;;;;;5053694;28;20470;-61
2021/06/04 10:44:03;;;;;;;12.60;9.87;;;20.70;91.50;;;;;;5054235;28;20471;-62
2021/06/04 10:46:36;;;;;;;13.57;10.00;;;20.70;91.50;;;;;;5040894;28;20493;-61
2021/06/04 10:49:21;;;;;;;9.53;8.63;;;20.60;92.00;;;;;;5053982;28;20473;-62
2021/06/04 10:51:55;;;;;;;9.10;8.20;;;20.60;92.20;;;;;;5051701;28;20467;-63
2021/06/04 10:54:32;;;;;;;9.60;8.70;;;20.60;92.50;;;;;;5053762;28;21162;-61
2021/06/04 10:57:02;;;;;;;12.20;8.67;;;20.60;92.70;;;;;;5052554;28;20473;-61
2021/06/04 10:59:51;;;;;;;10.87;9.87;;;20.60;92.80;;;;;;5054040;28;20468;-62
2021/06/04 11:02:32;;;;;;;12.40;11.27;;;20.70;93.20;;;;;;5052940;28;21326;-62
2021/06/04 11:05:17;;;;;;;11.17;9.47;;;20.70;93.20;;;;;;5052488;28;20482;-61
2021/06/04 11:07:54;;;;;;;9.53;8.73;;;20.70;93.20;;;;;;5053131;28;20474;-62
2021/06/04 11:10:25;;;;;;;11.67;8.80;;;20.70;93.10;;;;;;5053110;28;20483;-62
2021/06/04 11:13:04;;;;;;;9.47;8.37;;;20.70;92.90;;;;;;5053766;28;20470;-62
2021/06/04 11:15:42;;;;;;;12.53;9.47;;;20.80;92.90;;;;;;5054034;28;20473;-62
2021/06/04 11:18:14;;;;;;;9.60;8.67;;;20.90;92.90;;;;;;5053322;28;20480;-62
2021/06/04 11:20:51;;;;;;;9.30;8.50;;;21.10;93.10;;;;;;5053642;28;20557;-62
2021/06/04 11:23:27;;;;;;;8.73;7.93;;;21.20;93.20;;;;;;5053192;28;21210;-62
2021/06/04 11:25:57;;;;;;;11.97;8.50;;;21.40;93.00;;;;;;5053038;28;20589;-62
2021/06/04 11:28:49;;;;;;;10.67;9.40;;;21.60;92.70;;;;;;5053358;28;20470;-62
2021/06/04 11:31:25;;;;;;;9.03;8.10;;;21.70;91.70;;;;;;5046083;28;20523;-62
2021/06/04 11:33:55;;;;;;;9.50;7.73;;;21.80;91.30;;;;;;5073241;28;20522;-63
2021/06/04 11:36:28;;;;;;;9.60;7.27;;;22.00;90.80;;;;;;5073239;28;20537;-62
2021/06/04 11:38:58;;;;;;;7.80;6.87;;;22.20;90.40;;;;;;5073176;28;20502;-63
2021/06/04 11:41:42;;;;;;;8.90;8.10;;;22.30;89.50;;;;;;5066518;28;20812;-62
2021/06/04 11:44:23;;;;;;;9.73;7.80;;;22.40;90.00;;;;;;5052679;28;20464;-62
2021/06/04 11:47:38;;;;;;;8.00;7.30;;;22.50;88.30;;;;;;5052772;28;20478;-62
2021/06/04 11:50:33;;;;;;;7.83;7.03;;;22.60;88.30;;;;;;4991662;28;20449;-62
2021/06/04 11:53:31;;;;;;;7.87;7.17;;;22.60;87.80;;;;;;4991143;28;20925;-62
2021/06/04 11:55:58;;;;;;;9.43;8.30;;;22.70;86.50;;;;;;5043517;28;20546;-62
2021/06/04 11:58:50;;;;;;;8.30;7.40;;;22.70;86.60;;;;;;5052754;28;20467;-62
2021/06/04 12:01:39;;;;;;;7.10;6.60;;;22.80;86.40;;;;;;5053145;28;20473;-63
2021/06/04 12:04:10;;;;;;;7.30;6.70;;;22.80;85.80;;;;;;5052698;28;20965;-63
2021/06/04 12:07:02;;;;;;;10.30;6.73;;;22.80;85.80;;;;;;5052595;28;20525;-63
2021/06/04 12:09:52;;;;;;;9.40;7.53;;;22.90;85.30;;;;;;5052224;28;20500;-62
2021/06/04 12:12:39;;;;;;;7.70;6.97;;;22.90;84.90;;;;;;5051408;28;20464;-62
2021/06/04 12:15:36;;;;;;;7.43;6.77;;;22.90;84.50;;;;;;5052104;28;20949;-62
2021/06/04 12:18:30;;;;;;;6.77;6.27;;;23.00;84.30;;;;;;5052714;28;20814;-62
2021/06/04 12:20:57;;;;;;;8.40;7.70;;;23.00;84.20;;;;;;5052537;28;20466;-63
2021/06/04 12:23:50;;;;;;;6.80;6.10;;;23.10;84.00;;;;;;5052444;28;20512;-62
2021/06/04 12:26:37;;;;;;;6.47;5.63;;;23.20;83.60;;;;;;5052265;28;20965;-62
2021/06/04 12:29:40;;;;;;;6.50;5.63;;;23.20;80.00;;;;;;5052037;28;20471;-63
2021/06/04 12:32:10;;;;;;;7.33;6.40;;;23.30;79.60;;;;;;5052160;28;20512;-62
2021/06/04 12:34:58;;;;;;;6.50;5.90;;;23.40;79.30;;;;;;5052487;28;20474;-63
2021/06/04 12:37:31;;;;;;;6.43;5.80;;;23.50;80.60;;;;;;5052281;28;20465;-62
2021/06/04 12:40:20;;;;;;;6.50;6.00;;;23.60;80.10;;;;;;5052314;28;20467;-62
2021/06/04 12:42:59;;;;;;;6.60;6.10;;;23.60;76.50;;;;;;5052104;28;20459;-63
2021/06/04 12:45:29;;;;;;;6.13;5.60;;;23.60;75.40;;;;;;5052215;28;20497;-62
2021/06/04 12:48:03;;;;;;;8.93;6.03;;;23.60;76.00;;;;;;5037479;28;20479;-62
2021/06/04 12:50:33;;;;;;;6.60;6.00;;;23.60;76.70;;;;;;5040646;28;20990;-61
2021/06/04 12:53:18;;;;;;;8.03;7.30;;;23.70;76.50;;;;;;5043688;28;20542;-62
2021/06/04 12:55:46;;;;;;;5.93;5.53;;;23.70;75.80;;;;;;5048347;28;20479;-62
2021/06/04 12:58:21;;;;;;;7.40;6.70;;;23.60;75.70;;;;;;5051843;28;20474;-62
2021/06/04 13:00:49;;;;;;;8.47;6.57;;;23.70;77.90;;;;;;5047435;28;20474;-62
2021/06/04 13:03:23;;;;;;;8.70;7.70;;;23.70;78.70;;;;;;5048489;28;20467;-63
2021/06/04 13:05:50;;;;;;;10.93;8.50;;;23.70;78.90;;;;;;5051560;28;20501;-61
2021/06/04 13:08:21;;;;;;;9.67;8.77;;;23.70;79.30;;;;;;5051941;28;20848;-62